Time;durP1;ratioP1;P1;durP2;ratioP2;P2;SDS_P1;SDS_P2;PMS_P1;PMS_P2;Temp;Humidity;BMP_temperature;BMP_pressure;BME280_temperature;BME280_humidity;BME280_pressure;Samples;Min_cycle;Max_cycle;Signal;HPM_P1;HPM_P2
2022/12/29 00:01:37;;;;;;;87.20;24.90;;;;;;;-1.11;100.00;102108.05;1752816;79;21061;-85
2022/12/29 00:04:04;;;;;;;80.70;24.95;;;;;;;-1.12;100.00;102111.66;1757363;79;21262;-93
2022/12/29 00:06:31;;;;;;;80.35;24.67;;;;;;;-1.13;100.00;102115.28;1746593;79;21086;-85
2022/12/29 00:08:58;;;;;;;88.22;25.27;;;;;;;-1.14;100.00;102104.37;1759617;79;21080;-87
2022/12/29 00:11:27;;;;;;;76.28;23.67;;;;;;;-1.16;100.00;102108.47;1771298;79;21526;-86
2022/12/29 00:16:42;;;;;;;67.15;21.93;;;;;;;-1.21;100.00;102105.42;1781875;79;20995;-83
2022/12/29 00:35:07;;;;;;;74.07;23.22;;;;;;;-1.21;100.00;102110.71;1782501;79;21038;-84
2022/12/29 00:35:33;;;;;;;64.92;22.32;;;;;;;-1.05;100.00;102116.72;1763564;79;21309;-86
2022/12/29 00:46:18;;;;;;;73.52;21.82;;;;;;;-0.90;100.00;102123.69;1765667;80;20988;-87
2022/12/29 00:51:29;;;;;;;60.45;19.82;;;;;;;-0.86;100.00;102110.99;1781815;79;21014;-87
2022/12/29 00:53:55;;;;;;;58.73;20.08;;;;;;;-0.85;100.00;102116.16;1778613;80;21262;-86
2022/12/29 00:56:21;;;;;;;60.95;20.48;;;;;;;-0.81;100.00;102112.22;1778292;78;21090;-85
2022/12/29 00:58:47;;;;;;;63.25;19.37;;;;;;;-0.78;100.00;102117.22;1776426;79;20994;-85
2022/12/29 01:01:14;;;;;;;56.28;19.55;;;;;;;-0.75;100.00;102112.95;1775866;79;21510;-86
2022/12/29 01:03:40;;;;;;;54.48;18.98;;;;;;;-0.72;100.00;102114.47;1771068;79;21503;-83
2022/12/29 01:06:09;;;;;;;55.15;18.67;;;;;;;-0.70;100.00;102107.23;1779298;79;20957;-86
2022/12/29 01:08:36;;;;;;;55.03;18.62;;;;;;;-0.69;100.00;102103.09;1749474;79;21561;-85
2022/12/29 01:11:09;;;;;;;62.00;19.17;;;;;;;-0.69;100.00;102102.27;1784120;78;21069;-85
2022/12/29 01:13:36;;;;;;;;;;;;;;;-0.70;100.00;102102.76;1780045;79;20990;-87
2022/12/29 01:16:03;;;;;;;54.58;19.70;;;;;;;-0.71;100.00;102108.19;1774987;79;20203;-88
2022/12/29 01:18:30;;;;;;;52.48;18.55;;;;;;;-0.72;100.00;102105.20;1782427;78;21821;-83
2022/12/29 01:21:06;;;;;;;49.13;18.60;;;;;;;-0.76;100.00;102101.20;1781069;79;21531;-86
2022/12/29 01:23:34;;;;;;;49.77;17.50;;;;;;;-0.79;100.00;102098.36;1773964;79;21654;-85
2022/12/29 01:26:12;;;;;;;56.85;18.50;;;;;;;-0.81;100.00;102101.63;1770922;79;21020;-84
2022/12/29 01:28:39;;;;;;;54.65;19.17;;;;;;;-0.85;100.00;102102.06;1783341;79;21494;-93
2022/12/29 01:31:07;;;;;;;50.38;17.65;;;;;;;-0.88;100.00;102099.71;1776025;80;21954;-83
2022/12/29 01:33:33;;;;;;;51.77;18.25;;;;;;;-0.92;100.00;102100.00;1778882;79;21216;-86
2022/12/29 01:36:10;;;;;;;48.23;17.07;;;;;;;-0.93;100.00;102102.32;1782108;79;21089;-87
2022/12/29 01:38:37;;;;;;;50.05;17.67;;;;;;;-0.95;100.00;102100.30;1744672;79;21053;-86
2022/12/29 01:41:06;;;;;;;49.48;17.40;;;;;;;-0.96;100.00;102105.26;1710538;81;21089;-90
2022/12/29 01:43:50;;;;;;;57.55;18.45;;;;;;;-0.97;100.00;102100.95;1716058;82;21994;-85
2022/12/29 01:46:37;;;;;;;52.05;18.25;;;;;;;-0.98;100.00;102092.66;1718219;81;21516;-85
2022/12/29 01:49:14;;;;;;;55.95;18.82;;;;;;;-0.96;100.00;102092.03;1711980;81;21102;-89
2022/12/29 01:51:54;;;;;;;50.03;17.67;;;;;;;-0.95;100.00;102098.98;1710487;82;21250;-84
2022/12/29 01:54:31;;;;;;;48.63;18.12;;;;;;;-0.97;100.00;102100.95;1722857;81;21628;-85
2022/12/29 01:57:02;;;;;;;51.37;17.52;;;;;;;-0.95;100.00;102102.12;1710128;82;21620;-86
2022/12/29 01:59:37;;;;;;;53.60;18.35;;;;;;;-0.93;100.00;102107.61;1685141;83;21039;-90
2022/12/29 02:02:05;;;;;;;51.42;17.77;;;;;;;-0.87;100.00;102102.22;1695645;82;21043;-91
2022/12/29 02:04:33;;;;;;;52.03;18.52;;;;;;;-0.80;100.00;102106.43;1692439;82;21229;-86
2022/12/29 02:07:08;;;;;;;58.33;19.12;;;;;;;-0.73;100.00;102110.17;1725075;81;21217;-84
2022/12/29 02:09:34;;;;;;;59.00;18.85;;;;;;;-0.69;100.00;102109.71;1718177;81;21477;-86
2022/12/29 02:12:01;;;;;;;63.05;20.82;;;;;;;-0.60;100.00;102116.42;1722309;81;21070;-85
2022/12/29 02:14:27;;;;;;;70.42;21.12;;;;;;;-0.58;100.00;102112.66;1722262;81;21511;-86
2022/12/29 02:17:07;;;;;;;69.25;22.80;;;;;;;-0.52;100.00;102107.25;1725904;81;21702;-86
2022/12/29 02:20:00;;;;;;;70.45;21.00;;;;;;;-0.48;100.00;102112.08;1721571;81;21606;-86
2022/12/29 02:22:47;;;;;;;64.50;20.17;;;;;;;-0.41;100.00;102114.13;1726474;81;21044;-86
2022/12/29 02:25:39;;;;;;;58.20;17.48;;;;;;;-0.32;100.00;102115.91;1652942;85;21079;-86
2022/12/29 02:28:49;;;;;;;56.58;18.95;;;;;;;-0.27;100.00;102108.32;1651689;85;21097;-83
2022/12/29 02:31:23;;;;;;;48.80;16.70;;;;;;;-0.19;100.00;102111.55;1647530;85;21098;-86
2022/12/29 02:34:07;;;;;;;45.33;16.85;;;;;;;-0.11;100.00;102103.69;1644742;85;21066;-86
2022/12/29 02:37:00;;;;;;;49.18;16.20;;;;;;;-0.07;100.00;102102.38;1645720;85;21165;-85
2022/12/29 02:39:31;;;;;;;41.80;15.93;;;;;;;-0.02;100.00;102110.72;1632451;85;21056;-87
2022/12/29 02:42:11;;;;;;;40.58;15.13;;;;;;;0.04;100.00;102114.08;1634606;85;21687;-86
2022/12/29 02:45:21;;;;;;;51.55;16.20;;;;;;;0.10;100.00;102112.64;1625739;85;21607;-87
2022/12/29 02:48:10;;;;;;;46.80;14.93;;;;;;;0.15;100.00;102111.19;1640191;85;21238;-86
2022/12/29 02:50:41;;;;;;;44.15;15.08;;;;;;;0.21;100.00;102112.40;1620220;86;21345;-87
2022/12/29 02:53:12;;;;;;;45.85;16.05;;;;;;;0.23;100.00;102109.91;1615913;87;21090;-86
2022/12/29 02:55:38;;;;;;;43.52;15.13;;;;;;;0.28;100.00;102116.09;1543135;91;21159;-91
2022/12/29 02:58:15;;;;;;;52.38;16.40;;;;;;;0.33;100.00;102111.66;1514059;92;21078;-86
2022/12/29 03:01:05;;;;;;;46.50;16.20;;;;;;;0.36;100.00;102106.88;1516899;92;21161;-85
2022/12/29 03:03:55;;;;;;;45.35;15.20;;;;;;;0.41;100.00;102106.39;1554696;90;21477;-84
2022/12/29 03:06:29;;;;;;;47.53;15.40;;;;;;;0.46;100.00;102097.48;1558004;90;21196;-86
2022/12/29 03:09:10;;;;;;;39.38;14.18;;;;;;;0.50;100.00;102106.81;1555279;90;21094;-86
2022/12/29 03:12:09;;;;;;;37.88;14.38;;;;;;;0.54;100.00;102098.04;1549864;91;21101;-86
2022/12/29 03:17:46;;;;;;;40.75;13.25;;;;;;;0.60;100.00;102096.09;1518707;93;21210;-86
2022/12/29 03:20:17;;;;;;;36.60;13.35;;;;;;;0.63;100.00;102110.36;1515169;93;21130;-86
2022/12/29 03:22:47;;;;;;;41.70;13.08;;;;;;;0.65;100.00;102101.76;1481676;94;21094;-86
2022/12/29 03:25:31;;;;;;;37.70;13.60;;;;;;;0.69;100.00;102107.08;1483038;94;21142;-86
2022/12/29 03:28:02;;;;;;;42.50;13.93;;;;;;;0.70;100.00;102102.09;1472793;94;21206;-87
2022/12/29 03:30:30;;;;;;;40.63;14.90;;;;;;;0.73;100.00;102104.94;1474981;94;21121;-88
2022/12/29 03:33:02;;;;;;;39.75;14.78;;;;;;;0.74;100.00;102102.64;1475149;94;21173;-87
2022/12/29 03:35:33;;;;;;;36.33;13.62;;;;;;;0.80;100.00;102102.83;1491857;94;21200;-93
2022/12/29 03:38:13;;;;;;;41.00;13.75;;;;;;;0.84;100.00;102098.03;1486784;94;21764;-87
2022/12/29 03:40:46;;;;;;;33.58;12.40;;;;;;;0.88;100.00;102092.73;1475872;95;21115;-85
2022/12/29 03:43:13;;;;;;;34.23;13.05;;;;;;;0.89;100.00;102089.94;1475684;95;21884;-86
2022/12/29 03:45:39;;;;;;;34.65;12.07;;;;;;;0.90;100.00;102087.61;1467645;96;21120;-86
2022/12/29 03:48:06;;;;;;;33.25;12.25;;;;;;;0.89;100.00;102091.77;1438436;98;21608;-87
2022/12/29 03:50:32;;;;;;;35.28;12.58;;;;;;;0.87;100.00;102092.41;1442133;98;21120;-86
2022/12/29 03:52:58;;;;;;;40.20;12.55;;;;;;;0.89;100.00;102095.25;1506089;90;21171;-91
2022/12/29 03:55:24;;;;;;;35.70;11.73;;;;;;;0.92;100.00;102094.09;1556513;90;21172;-87
2022/12/29 03:57:51;;;;;;;37.33;10.93;;;;;;;0.93;100.00;102095.75;1548212;90;21100;-87
2022/12/29 04:00:18;;;;;;;30.40;11.45;;;;;;;0.93;100.00;102086.97;1548890;92;21485;-86
2022/12/29 04:02:44;;;;;;;38.30;12.20;;;;;;;0.94;100.00;102088.62;1539949;92;21017;-86
2022/12/29 04:05:10;;;;;;;33.00;11.20;;;;;;;0.95;100.00;102087.64;1542596;90;21135;-85
2022/12/29 04:07:36;;;;;;;35.28;12.15;;;;;;;0.96;100.00;102089.30;1549585;90;21915;-86
2022/12/29 04:10:03;;;;;;;35.50;11.83;;;;;;;0.96;100.00;102089.30;1543308;91;21173;-87
2022/12/29 04:12:29;;;;;;;30.12;11.20;;;;;;;0.96;100.00;102085.31;1554682;89;21172;-84
2022/12/29 04:14:56;;;;;;;43.40;12.07;;;;;;;0.95;100.00;102079.19;1557479;89;22262;-87
2022/12/29 04:17:22;;;;;;;34.50;11.57;;;;;;;0.98;100.00;102082.02;1603629;85;21638;-86
2022/12/29 04:19:48;;;;;;;37.65;11.80;;;;;;;0.96;100.00;102079.51;1629763;85;21181;-90
2022/12/29 04:22:14;;;;;;;30.60;10.95;;;;;;;0.97;100.00;102075.03;1634751;85;21033;-87
2022/12/29 04:24:41;;;;;;;31.85;11.45;;;;;;;0.98;100.00;102075.38;1632297;85;21128;-85
2022/12/29 04:27:07;;;;;;;30.55;10.50;;;;;;;0.97;100.00;102072.38;1704172;80;21559;-84
2022/12/29 04:29:33;;;;;;;30.10;10.98;;;;;;;0.95;100.00;102063.76;1715252;80;21027;-86
2022/12/29 04:32:00;;;;;;;30.45;11.68;;;;;;;0.98;100.00;102068.75;1742230;79;21121;-85
2022/12/29 04:34:26;;;;;;;32.58;11.43;;;;;;;0.96;100.00;102070.72;1778438;79;21019;-86
2022/12/29 04:36:52;;;;;;;35.95;12.13;;;;;;;0.98;100.00;102072.23;1782461;79;21065;-84
2022/12/29 04:39:18;;;;;;;32.45;11.48;;;;;;;0.98;100.00;102070.08;1783246;79;21084;-92
2022/12/29 04:41:44;;;;;;;35.15;11.43;;;;;;;0.99;100.00;102077.03;1782562;79;21392;-86
2022/12/29 04:44:11;;;;;;;33.08;12.98;;;;;;;0.99;100.00;102081.02;1779726;78;21080;-86
2022/12/29 04:46:37;;;;;;;35.20;11.83;;;;;;;0.99;100.00;102075.20;1775386;78;21159;-87
2022/12/29 04:49:08;;;;;;;30.77;11.20;;;;;;;1.01;100.00;102081.70;1773261;79;21077;-91
2022/12/29 04:51:31;;;;;;;37.28;11.95;;;;;;;1.00;100.00;102079.55;1784906;78;21053;-86
2022/12/29 04:53:58;;;;;;;33.65;11.25;;;;;;;0.99;100.00;102077.86;1783024;79;21561;-87
2022/12/29 04:56:24;;;;;;;32.38;12.37;;;;;;;0.98;100.00;102075.38;1776110;79;21544;-87
2022/12/29 04:58:50;;;;;;;34.45;12.15;;;;;;;0.97;100.00;102075.03;1778996;80;21120;-86
2022/12/29 05:01:16;;;;;;;34.33;11.63;;;;;;;0.95;100.00;102072.55;1771149;79;21113;-87
2022/12/29 05:03:43;;;;;;;36.35;11.28;;;;;;;0.95;100.00;102075.20;1763396;80;21046;-86
2022/12/29 05:06:09;;;;;;;29.77;11.33;;;;;;;0.93;100.00;102078.50;1773872;79;21093;-84
2022/12/29 05:08:35;;;;;;;28.60;11.10;;;;;;;0.91;100.00;102080.47;1778248;79;21123;-87
2022/12/29 05:11:01;;;;;;;32.48;11.08;;;;;;;0.88;100.00;102081.65;1775426;80;21041;-86
2022/12/29 05:13:28;;;;;;;34.05;12.03;;;;;;;0.87;100.00;102075.98;1778498;79;21550;-87
2022/12/29 08:09:37;;;;;;;20.62;9.18;;;;;;;18.41;100.00;102106.98;1814728;78;25809;-89
2022/12/29 08:12:03;;;;;;;21.37;10.90;;;;;;;19.10;100.00;102113.66;1730227;80;21037;-92
2022/12/29 08:14:30;;;;;;;22.32;10.45;;;;;;;19.73;97.72;102111.13;1720923;81;21074;-91
2022/12/29 08:16:56;;;;;;;20.43;9.28;;;;;;;20.63;91.59;102111.19;1724031;81;21055;-92
2022/12/29 08:19:23;;;;;;;17.10;8.65;;;;;;;20.32;82.24;102102.98;1728759;81;21551;-91
2022/12/29 08:21:50;;;;;;;15.08;8.53;;;;;;;21.17;72.78;102104.25;1731826;82;20995;-92
2022/12/29 08:24:18;;;;;;;17.77;8.83;;;;;;;21.41;69.66;102105.03;1721551;81;21074;-91
2022/12/29 08:26:44;;;;;;;16.60;8.03;;;;;;;19.84;65.53;102101.50;1751989;80;21292;-92
2022/12/29 08:29:11;;;;;;;19.20;8.18;;;;;;;18.17;62.80;102102.66;1760870;80;21051;-92
2022/12/29 08:31:37;;;;;;;17.77;7.33;;;;;;;16.44;59.19;102099.65;1735643;81;21563;-91
2022/12/29 08:34:04;;;;;;;18.12;8.20;;;;;;;14.98;60.03;102100.11;1752019;80;21048;-94
2022/12/29 08:36:30;;;;;;;21.07;9.03;;;;;;;13.82;62.47;102098.89;1732510;81;21121;-93
2022/12/29 08:38:58;;;;;;;16.40;7.60;;;;;;;12.98;63.52;102106.70;1755018;81;21281;-93
2022/12/29 08:41:24;;;;;;;15.50;6.87;;;;;;;12.16;64.25;102103.50;1746587;81;21269;-93
2022/12/29 08:43:51;;;;;;;19.90;7.97;;;;;;;11.39;66.89;102097.15;1747986;81;21107;-92
2022/12/29 08:46:18;;;;;;;19.57;7.65;;;;;;;10.77;68.06;102107.52;1739008;81;21582;-93
2022/12/29 08:48:44;;;;;;;23.42;7.85;;;;;;;10.33;71.09;102095.09;1757337;81;21020;-93
2022/12/29 08:51:10;;;;;;;22.58;8.50;;;;;;;9.26;73.61;102067.50;1736310;81;21789;-94
2022/12/29 08:53:37;;;;;;;19.05;8.10;;;;;;;9.26;73.61;102067.50;1760765;80;21001;-93
2022/12/29 08:56:04;;;;;;;24.60;9.00;;;;;;;8.87;76.31;102089.48;1759443;81;21111;-93
2022/12/29 08:58:31;;;;;;;28.25;9.85;;;;;;;8.34;79.08;102093.59;1751770;80;21172;-94
2022/12/29 09:00:58;;;;;;;26.35;9.65;;;;;;;7.87;80.69;102087.37;1754906;81;21042;-93
2022/12/29 09:03:26;;;;;;;22.05;8.98;;;;;;;7.50;86.35;102087.44;1744448;81;21255;-94
2022/12/29 09:05:54;;;;;;;24.87;9.20;;;;;;;7.26;90.69;102084.27;1760917;80;22503;-92
2022/12/29 09:08:21;;;;;;;23.77;7.95;;;;;;;7.08;93.91;102081.28;1747061;81;21610;-92
2022/12/29 09:10:48;;;;;;;21.33;7.42;;;;;;;6.89;95.95;102083.38;1761436;80;21118;-91
2022/12/29 09:13:15;;;;;;;17.55;6.67;;;;;;;6.65;97.71;102081.49;1779782;80;21579;-93
2022/12/29 09:15:42;;;;;;;19.92;7.53;;;;;;;6.43;99.19;102086.59;1737032;80;21925;-92
2022/12/29 09:18:11;;;;;;;18.60;6.90;;;;;;;6.23;100.00;102085.91;1763527;80;20996;-93
2022/12/29 09:20:38;;;;;;;18.10;7.25;;;;;;;6.09;100.00;102082.33;1779033;80;21019;-92
2022/12/29 09:25:34;;;;;;;21.00;6.58;;;;;;;5.79;100.00;102078.91;1696240;84;20964;-93
2022/12/29 09:28:04;;;;;;;17.40;7.30;;;;;;;5.65;100.00;102078.48;1710700;83;21162;-93
2022/12/29 09:30:29;;;;;;;20.88;6.87;;;;;;;5.57;100.00;102078.09;1690162;83;21039;-93
2022/12/29 09:32:55;;;;;;;17.98;6.70;;;;;;;5.44;100.00;102082.80;1708157;83;21093;-92
2022/12/29 09:35:22;;;;;;;15.35;6.28;;;;;;;5.34;100.00;102072.90;1688571;83;21609;-93
2022/12/29 09:37:48;;;;;;;22.58;6.85;;;;;;;5.24;100.00;102072.39;1700239;83;21594;-93
2022/12/29 09:40:26;;;;;;;18.20;6.08;;;;;;;5.19;100.00;102070.78;1688108;83;21075;-93
2022/12/29 09:43:15;;;;;;;15.83;6.20;;;;;;;5.12;100.00;102066.70;1598469;88;21097;-92
2022/12/29 09:45:55;;;;;;;19.35;6.12;;;;;;;5.05;100.00;102077.80;1546941;91;21126;-93
2022/12/29 09:48:27;;;;;;;16.82;5.83;;;;;;;5.02;100.00;102071.48;1530953;92;21151;-93
2022/12/29 09:50:58;;;;;;;12.88;5.50;;;;;;;4.90;100.00;102077.81;1530166;92;21155;-92
2022/12/29 09:53:46;;;;;;;16.85;6.15;;;;;;;4.86;100.00;102087.22;1528333;92;21177;-92
2022/12/29 09:56:18;;;;;;;14.85;5.85;;;;;;;4.82;100.00;102089.09;1503230;93;21068;-93
2022/12/29 09:58:53;;;;;;;15.85;5.92;;;;;;;4.75;100.00;102083.16;1523376;92;21084;-91
2022/12/29 10:01:49;;;;;;;16.23;5.10;;;;;;;4.70;100.00;102066.85;1521399;93;21209;-93
2022/12/29 10:04:15;;;;;;;13.13;5.17;;;;;;;4.68;100.00;102076.91;1504470;94;21511;-93
2022/12/29 10:07:05;;;;;;;13.88;5.12;;;;;;;4.68;100.00;102068.90;1503696;93;21217;-92
2022/12/29 10:09:39;;;;;;;17.73;5.55;;;;;;;4.68;100.00;102066.23;1498898;93;21143;-92
2022/12/29 10:12:29;;;;;;;14.20;5.10;;;;;;;4.73;100.00;102071.82;1490360;94;21283;-92
2022/12/29 10:15:38;;;;;;;16.73;5.25;;;;;;;4.75;100.00;102070.31;1492579;95;21168;-91
2022/12/29 10:18:26;;;;;;;14.53;5.35;;;;;;;4.78;100.00;102052.59;1477019;94;21207;-92
2022/12/29 10:21:16;;;;;;;15.72;6.90;;;;;;;4.76;100.00;102046.59;1483659;95;22275;-91
2022/12/29 10:23:52;;;;;;;13.05;5.20;;;;;;;4.79;100.00;102042.22;1498322;93;22804;-92
2022/12/29 10:26:30;;;;;;;20.68;5.83;;;;;;;4.77;100.00;102039.75;1493833;94;21029;-92
2022/12/29 10:29:06;;;;;;;14.87;5.05;;;;;;;4.75;100.00;102024.41;1508655;90;21192;-93
2022/12/29 10:31:44;;;;;;;13.35;5.50;;;;;;;4.74;100.00;102014.75;1507134;94;21667;-92
2022/12/29 10:34:27;;;;;;;16.62;5.12;;;;;;;4.75;100.00;102015.58;1483115;95;21172;-92
2022/12/29 10:37:04;;;;;;;20.65;5.25;;;;;;;4.75;100.00;102009.72;1463449;96;21107;-92
2022/12/29 10:40:10;;;;;;;12.37;4.35;;;;;;;4.81;100.00;102004.14;1476150;93;21622;-92
2022/12/29 10:42:47;;;;;;;14.83;4.85;;;;;;;4.82;100.00;101995.62;1524119;93;21630;-92
2022/12/29 10:45:19;;;;;;;14.07;4.70;;;;;;;4.86;100.00;102002.27;1495954;93;21707;-92
2022/12/29 10:48:02;;;;;;;16.37;5.53;;;;;;;4.85;100.00;102000.08;1510148;93;21941;-90
2022/12/29 10:50:29;;;;;;;15.38;5.22;;;;;;;4.81;100.00;102000.65;1446834;97;27021;-92
2022/12/29 10:53:02;;;;;;;13.03;4.15;;;;;;;4.80;100.00;102001.67;1458084;98;21144;-91
2022/12/29 10:55:37;;;;;;;13.60;4.53;;;;;;;4.86;100.00;101996.41;1457725;97;21143;-93
2022/12/29 10:58:06;;;;;;;19.02;6.08;;;;;;;4.90;100.00;101998.19;1418983;99;21235;-92
2022/12/29 11:00:34;;;;;;;14.40;4.45;;;;;;;4.96;100.00;101996.10;1418006;99;21243;-93
2022/12/29 11:03:34;;;;;;;13.38;4.33;;;;;;;5.06;100.00;101989.97;1420660;99;21208;-91
2022/12/29 11:06:24;;;;;;;11.65;4.12;;;;;;;5.18;100.00;101995.13;1415200;100;21126;-90
2022/12/29 11:09:01;;;;;;;12.45;4.40;;;;;;;5.26;100.00;101989.33;1409332;100;21728;-88
2022/12/29 11:11:34;;;;;;;10.50;4.17;;;;;;;5.29;100.00;101989.77;1352476;104;21203;-90
2022/12/29 11:14:14;;;;;;;11.10;4.40;;;;;;;5.33;100.00;101993.73;1336381;105;21237;-93
2022/12/29 11:16:43;;;;;;;11.03;4.20;;;;;;;5.42;100.00;101989.09;1337446;105;21144;-88
2022/12/29 11:19:26;;;;;;;11.43;4.42;;;;;;;5.49;100.00;101978.45;1334629;105;21345;-92
2022/12/29 11:21:53;;;;;;;13.13;4.93;;;;;;;5.51;100.00;101979.92;1341925;102;21224;-91
2022/12/29 11:24:29;;;;;;;16.02;4.50;;;;;;;5.48;100.00;101975.48;1381437;102;21073;-91
2022/12/29 11:27:15;;;;;;;12.47;4.70;;;;;;;5.44;100.00;101971.85;1391066;98;21209;-95
2022/12/29 11:29:44;;;;;;;13.83;4.72;;;;;;;5.44;100.00;101975.01;1427568;98;21787;-92
2022/12/29 11:32:23;;;;;;;14.63;4.92;;;;;;;5.45;100.00;101964.66;1461054;95;21165;-92
2022/12/29 11:34:50;;;;;;;17.02;5.15;;;;;;;5.48;100.00;101957.59;1469108;95;21184;-93
2022/12/29 11:37:27;;;;;;;16.10;4.40;;;;;;;5.50;100.00;101954.70;1472041;96;21085;-90
2022/12/29 11:40:21;;;;;;;16.50;4.65;;;;;;;5.50;100.00;101956.04;1470491;95;22424;-91
2022/12/29 11:43:02;;;;;;;17.70;5.03;;;;;;;5.53;100.00;101955.66;1469156;97;21191;-88
2022/12/29 11:45:35;;;;;;;15.80;5.00;;;;;;;5.52;100.00;101955.34;1476523;97;21092;-91
2022/12/29 11:48:16;;;;;;;11.63;5.15;;;;;;;5.51;100.00;101964.40;1473340;95;21192;-91
2022/12/29 11:50:46;;;;;;;17.27;5.40;;;;;;;5.50;100.00;101961.39;1474932;97;21624;-92
2022/12/29 11:53:24;;;;;;;17.82;6.25;;;;;;;5.51;100.00;101961.73;1469693;96;21166;-88
2022/12/29 11:56:04;;;;;;;18.02;7.00;;;;;;;5.50;100.00;101965.40;1465457;96;21281;-88
2022/12/29 11:58:34;;;;;;;16.62;6.25;;;;;;;5.48;100.00;101971.47;1464995;97;22262;-89
2022/12/29 12:01:17;;;;;;;15.58;5.87;;;;;;;5.45;100.00;101964.14;1444519;97;21215;-88
2022/12/29 12:03:49;;;;;;;;;;;;;;;5.48;100.00;101964.78;1464494;97;21108;-90
2022/12/29 12:06:20;;;;;;;15.53;5.87;;;;;;;5.41;100.00;101956.68;1483525;93;21229;-91
2022/12/29 12:12:01;;;;;;;14.70;5.42;;;;;;;5.34;100.00;101963.83;1618528;86;21053;-89
2022/12/29 12:14:39;;;;;;;16.12;5.72;;;;;;;5.30;100.00;101962.05;1587315;89;21047;-90
2022/12/29 12:17:12;;;;;;;15.30;5.87;;;;;;;5.28;100.00;101966.75;1512713;94;21803;-87
2022/12/29 12:19:50;;;;;;;14.28;5.47;;;;;;;5.27;100.00;101967.78;1491813;94;21186;-86
2022/12/29 12:22:36;;;;;;;16.62;5.50;;;;;;;5.26;100.00;101962.09;1511399;94;21749;-90
2022/12/29 12:25:27;;;;;;;20.88;6.12;;;;;;;5.27;100.00;101965.63;1512995;94;21129;-93
2022/12/29 12:28:14;;;;;;;21.40;6.20;;;;;;;5.26;100.00;101956.75;1512451;94;21068;-90
2022/12/29 12:30:51;;;;;;;16.70;5.72;;;;;;;5.29;100.00;101952.36;1440743;98;21685;-90
2022/12/29 12:33:37;;;;;;;14.53;5.22;;;;;;;5.31;100.00;101946.32;1455274;97;21142;-89
2022/12/29 12:36:34;;;;;;;12.80;5.03;;;;;;;5.38;100.00;101945.03;1461206;97;21092;-89
2022/12/29 12:39:22;;;;;;;21.17;5.22;;;;;;;5.39;100.00;101949.39;1458762;97;21735;-88
2022/12/29 12:42:26;;;;;;;14.93;4.60;;;;;;;5.43;100.00;101941.28;1461495;97;21572;-89
2022/12/29 12:44:55;;;;;;;;;;;;;;;5.48;100.00;101945.55;1463579;97;21687;-89
2022/12/29 12:47:51;;;;;;;15.55;5.10;;;;;;;5.45;100.00;101943.27;1461595;97;21930;-90
2022/12/29 12:50:59;;;;;;;12.90;4.90;;;;;;;5.46;100.00;101943.06;1461480;97;21180;-87
2022/12/29 12:53:37;;;;;;;13.00;4.35;;;;;;;5.41;100.00;101936.15;1471486;92;21119;-86
2022/12/29 12:56:08;;;;;;;17.80;5.33;;;;;;;5.37;100.00;101932.70;1509332;94;21097;-92
2022/12/29 12:58:58;;;;;;;12.70;3.98;;;;;;;5.36;100.00;101932.39;1476078;95;21200;-93
2022/12/29 13:01:49;;;;;;;11.75;4.37;;;;;;;5.31;100.00;101930.28;1473239;96;21932;-89
2022/12/29 13:04:44;;;;;;;10.90;3.60;;;;;;;5.28;100.00;101927.99;1472914;97;21099;-91
2022/12/29 17:03:43;;;;;;;13.85;5.78;;;;;;;1.44;100.00;101852.73;1788479;79;26003;-90
2022/12/29 17:06:19;;;;;;;14.07;5.30;;;;;;;1.51;100.00;101857.22;1750406;81;21070;-88
2022/12/29 17:08:47;;;;;;;14.73;5.85;;;;;;;1.66;100.00;101858.67;1745244;81;21140;-87
2022/12/29 17:14:29;;;;;;;14.87;5.87;;;;;;;1.90;100.00;101864.42;1743329;81;21091;-89
2022/12/29 17:16:56;;;;;;;22.77;6.53;;;;;;;2.00;100.00;101862.41;1729800;81;21040;-87
2022/12/29 17:19:35;;;;;;;11.50;4.95;;;;;;;2.14;100.00;101850.70;1722147;82;20996;-92
2022/12/29 17:22:03;;;;;;;15.28;5.40;;;;;;;2.22;100.00;101842.19;1716193;82;21099;-89
2022/12/29 17:24:30;;;;;;;16.23;4.50;;;;;;;2.32;100.00;101848.61;1711978;82;21024;-89
2022/12/29 17:26:59;;;;;;;13.62;4.87;;;;;;;2.38;100.00;101841.30;1715383;82;21020;-88
2022/12/29 17:29:38;;;;;;;12.23;4.80;;;;;;;2.46;100.00;101851.05;1717719;82;21212;-90
2022/12/29 17:32:09;;;;;;;14.38;5.33;;;;;;;2.54;100.00;101848.85;1716344;82;21125;-90
2022/12/29 17:34:36;;;;;;;18.45;5.75;;;;;;;2.58;100.00;101848.30;1714871;82;21375;-89
2022/12/29 17:37:03;;;;;;;11.80;4.87;;;;;;;2.65;100.00;101845.28;1720811;82;21186;-89
2022/12/29 17:39:29;;;;;;;14.33;4.67;;;;;;;2.71;100.00;101854.40;1718297;82;21036;-89
2022/12/29 17:41:55;;;;;;;12.88;4.85;;;;;;;2.76;100.00;101840.03;1720795;82;21702;-87
2022/12/29 17:44:24;;;;;;;15.53;5.25;;;;;;;2.79;100.00;101848.17;1726446;82;21135;-90
2022/12/29 17:46:50;;;;;;;16.82;4.95;;;;;;;2.84;100.00;101845.30;1705026;82;21227;-90
2022/12/29 17:49:18;;;;;;;15.28;4.80;;;;;;;2.88;100.00;101843.97;1716352;82;21064;-89
2022/12/29 17:51:46;;;;;;;11.63;4.62;;;;;;;2.92;100.00;101843.09;1722904;81;21194;-90
2022/12/29 17:54:22;;;;;;;13.40;4.67;;;;;;;2.96;100.00;101840.39;1731256;81;21140;-90
2022/12/29 17:56:49;;;;;;;14.28;5.67;;;;;;;3.00;100.00;101848.84;1704007;82;21104;-89
2022/12/29 17:59:19;;;;;;;14.03;5.00;;;;;;;3.04;100.00;101844.84;1702770;83;21148;-93
2022/12/29 18:01:49;;;;;;;14.83;5.55;;;;;;;3.06;100.00;101844.98;1700079;83;21474;-90
2022/12/29 18:04:19;;;;;;;12.98;5.08;;;;;;;3.09;100.00;101843.77;1697328;83;21627;-92
2022/12/29 18:06:46;;;;;;;9.78;4.47;;;;;;;3.12;100.00;101844.27;1650825;85;21074;-87
2022/12/29 18:09:13;;;;;;;12.93;5.33;;;;;;;3.15;100.00;101850.56;1648356;85;21092;-90
2022/12/29 18:11:42;;;;;;;14.03;4.62;;;;;;;3.17;100.00;101847.20;1659122;85;21368;-90
2022/12/29 18:14:16;;;;;;;12.10;4.65;;;;;;;3.23;100.00;101844.83;1660947;85;21137;-88
2022/12/29 18:16:43;;;;;;;10.75;4.28;;;;;;;3.25;100.00;101841.49;1651315;85;21115;-90
2022/12/29 18:19:09;;;;;;;15.30;5.25;;;;;;;3.26;100.00;101844.47;1652052;86;21114;-88
2022/12/29 18:21:37;;;;;;;11.70;4.92;;;;;;;3.28;100.00;101840.62;1621308;86;21563;-89
2022/12/29 18:24:04;;;;;;;13.55;4.78;;;;;;;3.28;100.00;101839.80;1644210;85;21966;-88
2022/12/29 18:26:31;;;;;;;17.75;4.53;;;;;;;3.31;100.00;101842.09;1639639;86;21614;-90
2022/12/29 18:28:58;;;;;;;10.43;4.97;;;;;;;3.33;100.00;101846.23;1654881;85;21643;-89
2022/12/29 18:31:28;;;;;;;9.38;4.22;;;;;;;3.35;100.00;101844.71;1670514;84;21768;-95
2022/12/29 18:33:58;;;;;;;11.28;4.42;;;;;;;3.39;100.00;101830.03;1611807;85;21105;-90
2022/12/29 18:36:26;;;;;;;17.15;4.90;;;;;;;3.45;100.00;101833.30;1608365;86;21157;-92
2022/12/29 18:38:53;;;;;;;12.30;5.10;;;;;;;3.50;100.00;101823.41;1609579;85;21260;-90
2022/12/29 18:41:29;;;;;;;14.80;4.97;;;;;;;3.54;100.00;101834.88;1620629;85;21054;-90
2022/12/29 18:43:57;;;;;;;15.68;5.00;;;;;;;3.57;100.00;101828.35;1620958;85;21543;-89
2022/12/29 18:46:24;;;;;;;17.27;5.28;;;;;;;3.61;100.00;101826.45;1623010;86;21615;-89
2022/12/29 18:48:54;;;;;;;15.88;5.65;;;;;;;3.68;100.00;101832.38;1578160;87;21100;-89
2022/12/29 18:51:23;;;;;;;14.95;5.17;;;;;;;3.73;100.00;101830.00;1582348;87;21745;-90
2022/12/29 18:56:24;;;;;;;14.47;5.50;;;;;;;3.77;100.00;101829.47;1566398;89;21261;-90
2022/12/29 18:58:55;;;;;;;19.55;5.83;;;;;;;3.81;100.00;101832.58;1602949;87;22051;-89
2022/12/29 19:04:14;;;;;;;9.70;4.33;;;;;;;3.86;100.00;101828.35;1487765;94;21103;-89
2022/12/29 19:06:41;;;;;;;11.25;4.10;;;;;;;3.88;100.00;101824.16;1475341;94;21766;-89
2022/12/29 19:09:07;;;;;;;11.63;4.70;;;;;;;3.89;100.00;101819.16;1481403;94;21155;-90
2022/12/29 19:11:35;;;;;;;13.68;4.72;;;;;;;3.91;100.00;101818.95;1476730;94;21068;-90
2022/12/29 19:14:01;;;;;;;10.32;4.35;;;;;;;3.93;100.00;101817.77;1511566;93;21189;-90
2022/12/29 19:16:27;;;;;;;9.50;4.03;;;;;;;3.95;100.00;101810.92;1513527;93;21206;-87